createdAt,value
2018-03-25T00:00:30.907Z,32.15
2018-03-25T00:02:58.466Z,33.80
2018-03-25T00:05:26.740Z,34.80
2018-03-25T00:07:54.276Z,48.83
2018-03-25T00:10:22.546Z,35.80
2018-03-25T00:12:50.035Z,35.63
2018-03-25T00:15:18.419Z,35.75
2018-03-25T00:17:45.980Z,36.67
2018-03-25T00:20:13.553Z,37.22
2018-03-25T00:22:41.046Z,35.58
2018-03-25T00:25:08.639Z,32.80
2018-03-25T00:27:36.881Z,32.80
2018-03-25T00:30:04.382Z,32.25
2018-03-25T00:32:31.936Z,34.03
2018-03-25T00:35:00.220Z,30.42
2018-03-25T00:37:28.510Z,34.40
2018-03-25T00:39:56.045Z,33.58
2018-03-25T00:42:24.327Z,32.85
2018-03-25T00:44:52.609Z,33.90
2018-03-25T00:47:20.946Z,33.63
2018-03-25T00:49:48.451Z,40.90
2018-03-25T00:52:15.976Z,42.03
2018-03-25T00:54:43.451Z,39.47
2018-03-25T00:57:11.724Z,41.15
2018-03-25T00:59:39.303Z,41.97
2018-03-25T01:02:07.574Z,41.65
2018-03-25T01:04:35.855Z,44.97
2018-03-25T01:07:04.216Z,53.97
2018-03-25T01:09:32.487Z,53.78
2018-03-25T01:12:00.782Z,47.20
2018-03-25T01:14:29.096Z,45.58
2018-03-25T01:16:56.615Z,44.85
2018-03-25T01:19:24.891Z,47.67
2018-03-25T01:21:53.155Z,45.10
2018-03-25T01:24:21.722Z,49.45
2018-03-25T01:26:49.247Z,44.22
2018-03-25T01:29:16.755Z,42.30
2018-03-25T01:31:45.014Z,46.53
2018-03-25T01:34:12.489Z,49.83
2018-03-25T01:36:40.790Z,45.15
2018-03-25T01:39:09.068Z,43.95
2018-03-25T01:41:37.372Z,42.40
2018-03-25T01:44:04.889Z,42.92
2018-03-25T01:46:32.457Z,36.65
2018-03-25T01:49:00.704Z,35.88
2018-03-25T01:51:28.203Z,37.22
2018-03-25T01:53:56.451Z,40.45
2018-03-25T01:56:23.935Z,43.53
2018-03-25T01:58:52.202Z,45.12
2018-03-25T02:01:20.488Z,45.28
2018-03-25T02:03:48.764Z,40.95
2018-03-25T02:06:17.040Z,44.60
2018-03-25T02:08:45.290Z,46.13
2018-03-25T02:11:12.785Z,43.28
2018-03-25T02:13:40.331Z,46.10
2018-03-25T02:16:08.607Z,45.95
2018-03-25T02:18:36.861Z,40.12
2018-03-25T02:21:04.470Z,40.28
2018-03-25T02:23:32.350Z,39.00
2018-03-25T02:25:59.836Z,39.15
2018-03-25T02:28:27.427Z,40.92
2018-03-25T02:30:55.683Z,45.90
2018-03-25T02:33:23.179Z,40.47
2018-03-25T02:35:50.679Z,44.05
2018-03-25T02:38:18.181Z,46.70
2018-03-25T02:40:46.427Z,41.55
2018-03-25T02:43:13.943Z,37.67
2018-03-25T02:45:41.433Z,36.63
2018-03-25T02:48:08.931Z,40.25
2018-03-25T02:50:37.202Z,38.10
2018-03-25T02:53:05.507Z,36.50
2018-03-25T02:55:33.003Z,42.20
2018-03-25T02:58:00.511Z,41.72
2018-03-25T03:00:28.018Z,41.65
2018-03-25T03:02:55.614Z,45.63
2018-03-25T03:05:23.903Z,46.50
2018-03-25T03:07:52.145Z,49.58
2018-03-25T03:10:19.734Z,51.88
2018-03-25T03:12:48.019Z,53.47
2018-03-25T03:15:16.282Z,52.65
2018-03-25T03:17:44.566Z,53.22
2018-03-25T03:20:12.830Z,51.50
2018-03-25T03:22:40.315Z,51.95
2018-03-25T03:25:07.858Z,49.78
2018-03-25T03:27:36.485Z,45.80
2018-03-25T03:30:03.974Z,45.33
2018-03-25T03:32:31.563Z,41.15
2018-03-25T03:34:59.827Z,45.80
2018-03-25T03:37:27.399Z,43.50
2018-03-25T03:39:55.687Z,45.25
2018-03-25T03:42:23.233Z,44.15
2018-03-25T03:44:51.525Z,47.33
2018-03-25T03:47:19.781Z,46.30
2018-03-25T03:49:47.346Z,45.45
2018-03-25T03:52:15.585Z,41.65
2018-03-25T03:54:43.081Z,42.80
2018-03-25T03:57:11.362Z,42.58
2018-03-25T03:59:39.642Z,42.28
2018-03-25T04:02:07.903Z,41.37
2018-03-25T04:04:36.187Z,44.03
2018-03-25T04:07:04.471Z,45.80
2018-03-25T04:09:32.732Z,45.58
2018-03-25T04:12:00.245Z,44.10
2018-03-25T04:14:27.718Z,44.70
2018-03-25T04:16:55.198Z,46.55
2018-03-25T04:19:22.778Z,48.38
2018-03-25T04:21:51.025Z,44.75
2018-03-25T04:24:18.615Z,42.95
2018-03-25T04:26:46.114Z,47.10
2018-03-25T04:29:13.627Z,50.40
2018-03-25T04:31:41.892Z,50.45
2018-03-25T04:34:09.407Z,52.88
2018-03-25T04:36:36.923Z,52.58
2018-03-25T04:39:05.183Z,54.20
2018-03-25T04:41:32.691Z,58.80
2018-03-25T04:44:00.522Z,57.70
2018-03-25T04:46:28.777Z,52.53
2018-03-25T04:48:56.270Z,56.37
2018-03-25T04:51:24.531Z,57.88
2018-03-25T04:53:53.263Z,53.20
2018-03-25T04:56:20.774Z,48.63
2018-03-25T04:58:49.070Z,47.80
2018-03-25T05:01:17.338Z,51.95
2018-03-25T05:03:45.608Z,46.40
2018-03-25T05:06:13.897Z,48.50
2018-03-25T05:08:42.170Z,47.00
2018-03-25T05:11:10.438Z,45.50
2018-03-25T05:13:38.691Z,48.05
2018-03-25T05:16:06.170Z,48.70
2018-03-25T05:18:34.454Z,48.17
2018-03-25T05:21:02.705Z,46.03
2018-03-25T05:23:30.298Z,46.47
2018-03-25T05:25:58.588Z,44.63
2018-03-25T05:28:26.147Z,50.53
2018-03-25T05:30:53.637Z,46.63
2018-03-25T05:33:21.755Z,46.58
2018-03-25T05:35:50.050Z,43.80
2018-03-25T05:38:17.619Z,44.95
2018-03-25T05:40:45.127Z,49.40
2018-03-25T05:43:13.761Z,56.83
2018-03-25T05:45:41.250Z,45.08
2018-03-25T05:48:08.756Z,46.33
2018-03-25T05:50:37.023Z,45.03
2018-03-25T05:53:04.517Z,45.95
2018-03-25T05:55:32.036Z,43.45
2018-03-25T05:57:59.622Z,45.50
2018-03-25T06:00:27.098Z,49.58
2018-03-25T06:02:54.599Z,45.92
2018-03-25T06:05:22.091Z,47.10
2018-03-25T06:07:49.585Z,46.50
2018-03-25T06:10:17.104Z,45.17
2018-03-25T06:12:45.350Z,42.50
2018-03-25T06:15:12.931Z,47.35
2018-03-25T06:17:40.450Z,42.60
2018-03-25T06:20:07.935Z,42.50
2018-03-25T06:22:36.926Z,40.63
2018-03-25T06:25:04.422Z,43.00
2018-03-25T06:27:31.970Z,39.40
2018-03-25T06:29:59.528Z,40.75
2018-03-25T06:32:27.902Z,40.33
2018-03-25T06:34:56.187Z,41.88
2018-03-25T06:37:23.735Z,42.03
2018-03-25T06:39:52.424Z,39.65
2018-03-25T06:42:19.919Z,38.35
2018-03-25T06:44:47.416Z,44.97
2018-03-25T06:47:14.939Z,43.53
2018-03-25T06:49:42.425Z,38.80
2018-03-25T06:52:09.911Z,39.63
2018-03-25T06:54:38.218Z,40.58
2018-03-25T06:57:05.830Z,37.15
2018-03-25T06:59:33.313Z,40.88
2018-03-25T07:02:00.940Z,40.25
2018-03-25T07:04:28.432Z,40.12
2018-03-25T07:06:56.703Z,37.30
2018-03-25T07:09:25.087Z,34.97
2018-03-25T07:11:53.378Z,37.83
2018-03-25T07:14:20.998Z,33.88
2018-03-25T07:16:48.505Z,36.87
2018-03-25T07:19:16.183Z,41.88
2018-03-25T07:21:43.699Z,36.80
2018-03-25T07:24:12.016Z,32.40
2018-03-25T07:26:39.497Z,34.07
2018-03-25T07:29:07.006Z,32.00
2018-03-25T07:31:35.307Z,29.60
2018-03-25T07:34:02.812Z,30.37
2018-03-25T07:36:30.307Z,31.03
2018-03-25T07:38:58.607Z,30.33
2018-03-25T07:41:26.104Z,31.90
2018-03-25T07:43:53.580Z,29.77
2018-03-25T07:46:21.147Z,30.77
2018-03-25T07:48:49.432Z,29.07
2018-03-25T07:51:17.677Z,28.00
2018-03-25T07:53:45.181Z,31.57
2018-03-25T07:56:12.703Z,29.53
2018-03-25T07:58:40.284Z,31.13
2018-03-25T08:01:08.620Z,29.27
2018-03-25T08:03:36.122Z,29.70
2018-03-25T08:06:03.629Z,29.33
2018-03-25T08:08:31.179Z,27.63
2018-03-25T08:10:58.687Z,28.10
2018-03-25T08:13:26.213Z,28.37
2018-03-25T08:15:53.715Z,27.90
2018-03-25T08:18:21.986Z,28.03
2018-03-25T08:20:50.236Z,29.37
2018-03-25T08:23:17.821Z,29.13
2018-03-25T08:25:46.070Z,28.57
2018-03-25T08:28:13.655Z,32.17
2018-03-25T08:30:41.922Z,28.13
2018-03-25T08:33:09.408Z,29.33
2018-03-25T08:35:36.898Z,28.10
2018-03-25T08:38:04.407Z,29.93
2018-03-25T08:40:32.662Z,32.70
2018-03-25T08:43:00.181Z,30.30
2018-03-25T08:45:27.730Z,28.73
2018-03-25T08:47:55.219Z,29.10
2018-03-25T08:50:22.726Z,38.80
2018-03-25T08:52:50.991Z,33.20
2018-03-25T08:55:18.474Z,28.90
2018-03-25T08:57:46.033Z,31.43
2018-03-25T09:00:13.539Z,37.03
2018-03-25T09:02:41.039Z,31.50
2018-03-25T09:05:09.287Z,25.83
2018-03-25T09:07:36.818Z,25.67
2018-03-25T09:10:04.363Z,28.57
2018-03-25T09:12:31.852Z,26.63
2018-03-25T09:14:59.455Z,25.13
2018-03-25T09:17:27.689Z,21.33
2018-03-25T09:19:55.187Z,24.63
2018-03-25T09:22:23.453Z,24.63
2018-03-25T09:24:51.032Z,24.93
2018-03-25T09:27:20.171Z,24.00
2018-03-25T09:29:47.706Z,23.27
2018-03-25T09:32:15.186Z,28.73
2018-03-25T09:34:42.698Z,23.90
2018-03-25T09:37:11.001Z,24.97
2018-03-25T09:39:38.502Z,24.23
2018-03-25T09:42:06.039Z,28.40
2018-03-25T09:44:33.651Z,24.10
2018-03-25T09:47:01.924Z,23.80
2018-03-25T09:49:30.207Z,23.07
2018-03-25T09:51:58.581Z,24.63
2018-03-25T09:54:26.852Z,28.10
2018-03-25T09:56:54.335Z,24.50
2018-03-25T09:59:21.966Z,25.17
2018-03-25T10:01:55.167Z,26.10
2018-03-25T10:04:23.444Z,24.50
2018-03-25T10:06:51.705Z,25.10
2018-03-25T10:09:19.288Z,25.27
2018-03-25T10:11:47.551Z,24.13
2018-03-25T10:14:15.119Z,24.40
2018-03-25T10:16:43.418Z,25.57
2018-03-25T10:19:11.809Z,23.70
2018-03-25T10:21:39.338Z,23.33
2018-03-25T10:24:07.596Z,23.70
2018-03-25T10:26:35.183Z,23.23
2018-03-25T10:29:02.742Z,22.13
2018-03-25T10:31:31.016Z,22.87
2018-03-25T10:33:59.390Z,23.37
2018-03-25T10:36:27.674Z,24.40
2018-03-25T10:38:55.919Z,24.17
2018-03-25T10:41:23.502Z,21.87
2018-03-25T10:43:51.762Z,22.87
2018-03-25T10:46:19.251Z,22.33
2018-03-25T10:48:46.777Z,22.10
2018-03-25T10:51:14.298Z,23.80
2018-03-25T10:53:41.792Z,22.43
2018-03-25T10:56:09.304Z,22.03
2018-03-25T10:58:36.804Z,27.23
2018-03-25T11:01:04.298Z,24.07
2018-03-25T11:03:32.574Z,22.97
2018-03-25T11:06:00.822Z,23.30
2018-03-25T11:08:28.331Z,22.83
2018-03-25T11:10:55.854Z,21.90
2018-03-25T11:13:24.112Z,22.17
2018-03-25T11:15:51.713Z,22.20
2018-03-25T11:18:19.229Z,23.20
2018-03-25T11:20:46.737Z,22.33
2018-03-25T11:23:14.223Z,21.40
2018-03-25T11:25:41.841Z,21.60
2018-03-25T11:28:10.114Z,22.13
2018-03-25T11:30:38.379Z,20.67
2018-03-25T11:33:06.651Z,21.50
2018-03-25T11:35:34.929Z,21.43
2018-03-25T11:38:02.415Z,20.40
2018-03-25T11:40:29.968Z,21.83
2018-03-25T11:42:57.545Z,21.43
2018-03-25T11:45:25.140Z,21.80
2018-03-25T11:47:52.712Z,23.23
2018-03-25T11:50:20.202Z,23.10
2018-03-25T11:52:48.487Z,21.53
2018-03-25T11:55:16.034Z,20.13
2018-03-25T11:57:44.325Z,19.73
2018-03-25T12:00:11.824Z,21.90
2018-03-25T12:02:39.332Z,20.60
2018-03-25T12:05:07.595Z,19.60
2018-03-25T12:07:35.849Z,20.63
2018-03-25T12:10:03.446Z,20.53
2018-03-25T12:12:31.716Z,19.23
2018-03-25T12:15:00.022Z,19.83
2018-03-25T12:17:27.770Z,20.17
2018-03-25T12:19:55.301Z,20.07
2018-03-25T12:22:23.597Z,19.87
2018-03-25T12:24:51.890Z,19.93
2018-03-25T12:27:19.458Z,20.30
2018-03-25T12:29:46.951Z,20.23
2018-03-25T12:32:14.455Z,18.87
2018-03-25T12:34:41.940Z,19.57
2018-03-25T12:37:09.466Z,22.20
2018-03-25T12:39:36.979Z,19.40
2018-03-25T12:42:04.463Z,19.70
2018-03-25T12:44:31.972Z,21.10
2018-03-25T12:46:59.481Z,19.37
2018-03-25T12:49:27.058Z,18.87
2018-03-25T12:51:55.317Z,18.83
2018-03-25T12:54:23.615Z,19.77
2018-03-25T12:56:51.138Z,18.33
2018-03-25T12:59:18.626Z,18.33
2018-03-25T13:01:46.912Z,18.87
2018-03-25T13:04:15.184Z,19.70
2018-03-25T13:06:43.519Z,18.67
2018-03-25T13:09:11.015Z,19.17
2018-03-25T13:11:39.307Z,19.10
2018-03-25T13:14:06.795Z,18.67
2018-03-25T13:16:34.310Z,19.50
2018-03-25T13:19:02.702Z,18.93
2018-03-25T13:21:31.011Z,18.77
2018-03-25T13:23:59.243Z,18.33
2018-03-25T13:26:27.516Z,18.90
2018-03-25T13:28:55.916Z,18.20
2018-03-25T13:31:23.351Z,18.40
2018-03-25T13:33:50.918Z,18.20
2018-03-25T13:36:19.167Z,18.03
2018-03-25T13:38:46.681Z,18.07
2018-03-25T13:41:14.307Z,18.93
2018-03-25T13:43:41.907Z,19.87
2018-03-25T13:46:09.495Z,19.87
2018-03-25T13:48:36.985Z,28.77
2018-03-25T13:51:05.244Z,18.63
2018-03-25T13:53:32.751Z,24.70
2018-03-25T13:56:00.241Z,19.57
2018-03-25T13:58:27.725Z,19.23
2018-03-25T14:00:55.325Z,20.10
2018-03-25T14:03:22.862Z,21.77
2018-03-25T14:05:51.142Z,18.47
2018-03-25T14:08:19.411Z,20.43
2018-03-25T14:10:47.785Z,20.87
2018-03-25T14:13:15.356Z,19.93
2018-03-25T14:15:43.767Z,19.67
2018-03-25T14:18:11.252Z,19.37
2018-03-25T14:20:38.751Z,19.73
2018-03-25T14:23:07.125Z,19.33
2018-03-25T14:25:34.688Z,17.60
2018-03-25T14:28:02.385Z,18.73
2018-03-25T14:30:29.962Z,20.00
2018-03-25T14:32:57.434Z,19.47
2018-03-25T14:35:24.927Z,20.13
2018-03-25T14:37:53.298Z,19.40
2018-03-25T14:40:20.876Z,21.60
2018-03-25T14:42:49.204Z,20.07
2018-03-25T14:45:16.821Z,19.77
2018-03-25T14:47:45.074Z,21.30
2018-03-25T14:50:12.634Z,22.70
2018-03-25T14:52:40.178Z,22.40
2018-03-25T14:55:09.193Z,19.73
2018-03-25T14:57:36.755Z,19.73
2018-03-25T15:00:05.031Z,33.63
2018-03-25T15:02:33.355Z,25.23
2018-03-25T15:05:00.868Z,20.83
2018-03-25T15:07:29.135Z,20.20
2018-03-25T15:09:56.619Z,21.07
2018-03-25T15:12:24.866Z,21.07
2018-03-25T15:14:52.579Z,22.97
2018-03-25T15:17:20.079Z,19.87
2018-03-25T15:19:47.682Z,22.93
2018-03-25T15:22:15.189Z,28.27
2018-03-25T15:24:42.690Z,23.03
2018-03-25T15:27:10.935Z,23.20
2018-03-25T15:29:38.441Z,23.13
2018-03-25T15:32:05.984Z,23.00
2018-03-25T15:34:34.227Z,23.97
2018-03-25T15:37:03.357Z,24.67
2018-03-25T15:39:30.923Z,24.23
2018-03-25T15:41:59.166Z,23.47
2018-03-25T15:44:26.670Z,25.93
2018-03-25T15:46:54.170Z,25.07
2018-03-25T15:49:21.720Z,25.80
2018-03-25T15:51:49.399Z,24.23
2018-03-25T15:54:16.840Z,24.27
2018-03-25T15:56:44.410Z,25.80
2018-03-25T15:59:12.632Z,22.97
2018-03-25T16:01:40.127Z,23.50
2018-03-25T16:04:07.614Z,24.93
2018-03-25T16:06:35.158Z,25.10
2018-03-25T16:09:02.651Z,23.70
2018-03-25T16:11:30.893Z,26.30
2018-03-25T16:13:58.416Z,25.47
2018-03-25T16:16:25.945Z,26.87
2018-03-25T16:18:54.226Z,24.27
2018-03-25T16:21:22.606Z,27.63
2018-03-25T16:23:50.875Z,25.93
2018-03-25T16:26:19.121Z,25.97
2018-03-25T16:28:46.724Z,29.60
2018-03-25T16:31:14.277Z,26.23
2018-03-25T16:33:42.518Z,25.33
2018-03-25T16:36:10.018Z,25.60
2018-03-25T16:38:38.316Z,24.67
2018-03-25T16:41:05.809Z,26.80
2018-03-25T16:43:35.881Z,27.07
2018-03-25T16:46:03.367Z,25.20
2018-03-25T16:48:30.873Z,25.87
2018-03-25T16:50:59.151Z,26.13
2018-03-25T16:53:27.723Z,26.80
2018-03-25T16:55:55.993Z,26.50
2018-03-25T16:58:23.490Z,25.70
2018-03-25T17:00:51.041Z,27.93
2018-03-25T17:03:19.366Z,26.67
2018-03-25T17:05:46.964Z,26.33
2018-03-25T17:08:14.535Z,26.50
2018-03-25T17:10:42.802Z,27.90
2018-03-25T17:13:11.075Z,28.33
2018-03-25T17:15:39.381Z,27.80
2018-03-25T17:18:06.926Z,28.30
2018-03-25T17:20:35.211Z,30.63
2018-03-25T17:23:02.887Z,27.73
2018-03-25T17:25:30.402Z,29.90
2018-03-25T17:27:57.922Z,30.20
2018-03-25T17:30:25.448Z,49.20
2018-03-25T17:32:53.723Z,43.37
2018-03-25T17:35:22.130Z,29.60
2018-03-25T17:37:49.629Z,30.10
2018-03-25T17:40:17.151Z,27.63
2018-03-25T17:42:44.695Z,28.67
2018-03-25T17:45:12.195Z,28.93
2018-03-25T17:47:39.687Z,30.00
2018-03-25T17:50:07.198Z,27.97
2018-03-25T17:52:34.674Z,29.50
2018-03-25T17:55:02.331Z,30.67
2018-03-25T17:57:29.850Z,29.30
2018-03-25T17:59:57.455Z,30.37
2018-03-25T18:02:24.942Z,33.23
2018-03-25T18:04:53.220Z,32.40
2018-03-25T18:07:21.524Z,31.73
2018-03-25T18:09:49.030Z,32.27
2018-03-25T18:12:16.540Z,31.90
2018-03-25T18:14:44.032Z,30.93
2018-03-25T18:17:33.462Z,32.73
2018-03-25T18:19:40.833Z,30.57
2018-03-25T18:22:09.074Z,32.40
2018-03-25T18:24:36.635Z,30.00
2018-03-25T18:27:04.148Z,32.23
2018-03-25T18:29:31.640Z,30.67
2018-03-25T18:31:59.133Z,33.90
2018-03-25T18:34:26.634Z,30.63
2018-03-25T18:36:54.223Z,33.07
2018-03-25T18:39:21.710Z,33.47
2018-03-25T18:41:49.627Z,32.40
2018-03-25T18:44:17.130Z,31.53
2018-03-25T18:46:44.623Z,34.47
2018-03-25T18:49:12.179Z,31.27
2018-03-25T18:51:39.623Z,31.80
2018-03-25T18:54:07.883Z,33.27
2018-03-25T18:56:35.410Z,34.73
2018-03-25T18:59:02.909Z,32.27
2018-03-25T19:01:31.157Z,34.00
2018-03-25T19:03:58.747Z,34.63
2018-03-25T19:06:27.038Z,36.73
2018-03-25T19:08:55.309Z,33.93
2018-03-25T19:11:23.603Z,35.27
2018-03-25T19:13:51.113Z,35.77
2018-03-25T19:16:18.590Z,37.03
2018-03-25T19:18:46.124Z,37.77
2018-03-25T19:21:13.620Z,34.27
2018-03-25T19:23:41.897Z,37.43
2018-03-25T19:26:10.159Z,38.30
2018-03-25T19:28:37.633Z,38.23
2018-03-25T19:31:05.909Z,37.67
2018-03-25T19:33:34.300Z,37.87
2018-03-25T19:36:01.803Z,38.40
2018-03-25T19:38:29.497Z,41.40
2018-03-25T19:40:57.001Z,39.40
2018-03-25T19:43:24.554Z,43.30
2018-03-25T19:45:52.072Z,41.27
2018-03-25T19:48:19.590Z,41.83
2018-03-25T19:50:47.094Z,42.87
2018-03-25T19:53:14.581Z,44.07
2018-03-25T19:55:42.134Z,41.53
2018-03-25T19:58:09.787Z,46.33
2018-03-25T20:00:38.051Z,42.83
2018-03-25T20:03:06.350Z,45.77
2018-03-25T20:05:33.941Z,43.60
2018-03-25T20:08:01.418Z,46.53
2018-03-25T20:10:28.927Z,47.07
2018-03-25T20:12:57.491Z,45.93
2018-03-25T20:15:25.779Z,47.67
2018-03-25T20:17:54.038Z,48.10
2018-03-25T20:20:21.526Z,47.53
2018-03-25T20:22:49.013Z,45.93
2018-03-25T20:25:16.623Z,49.67
2018-03-25T20:27:44.898Z,48.23
2018-03-25T20:30:13.150Z,47.87
2018-03-25T20:32:40.661Z,46.87
2018-03-25T20:35:08.224Z,47.83
2018-03-25T20:37:35.778Z,46.50
2018-03-25T20:40:03.314Z,54.37
2018-03-25T20:42:30.982Z,47.83
2018-03-25T20:44:58.678Z,48.60
2018-03-25T20:47:26.256Z,46.70
2018-03-25T20:49:54.089Z,50.03
2018-03-25T20:52:21.615Z,45.80
2018-03-25T20:54:49.153Z,49.13
2018-03-25T20:57:16.635Z,50.43
2018-03-25T20:59:44.116Z,48.33
2018-03-25T21:02:11.715Z,53.23
2018-03-25T21:04:39.217Z,49.27
2018-03-25T21:07:07.483Z,52.00
2018-03-25T21:09:35.093Z,49.23
2018-03-25T21:12:02.592Z,51.10
2018-03-25T21:14:30.088Z,50.00
2018-03-25T21:16:58.363Z,52.00
2018-03-25T21:19:26.770Z,48.73
2018-03-25T21:21:54.269Z,50.23
2018-03-25T21:24:21.845Z,51.33
2018-03-25T21:26:50.102Z,51.33
2018-03-25T21:29:17.572Z,55.37
2018-03-25T21:31:45.091Z,54.53
2018-03-25T21:34:12.571Z,52.03
2018-03-25T21:36:40.046Z,53.60
2018-03-25T21:39:07.564Z,53.53
2018-03-25T21:41:35.052Z,53.27
2018-03-25T21:44:02.656Z,52.33
2018-03-25T21:46:30.191Z,56.33
2018-03-25T21:48:58.447Z,50.73
2018-03-25T21:51:26.802Z,50.00
2018-03-25T21:53:54.311Z,53.13
2018-03-25T21:56:22.555Z,55.67
2018-03-25T21:58:50.044Z,51.57
2018-03-25T22:01:18.311Z,53.33
2018-03-25T22:03:46.570Z,50.80
2018-03-25T22:06:14.058Z,49.70
2018-03-25T22:08:42.491Z,49.47
2018-03-25T22:11:10.036Z,53.53
2018-03-25T22:13:38.126Z,53.37
2018-03-25T22:16:05.660Z,51.93
2018-03-25T22:18:33.164Z,54.67
2018-03-25T22:21:00.728Z,54.13
2018-03-25T22:23:28.304Z,57.80
2018-03-25T22:25:56.571Z,54.67
2018-03-25T22:28:24.822Z,56.47
2018-03-25T22:30:52.410Z,55.10
2018-03-25T22:33:20.708Z,53.53
2018-03-25T22:35:48.290Z,55.73
2018-03-25T22:38:15.810Z,49.87
2018-03-25T22:40:44.056Z,56.27
2018-03-25T22:43:11.537Z,51.00
2018-03-25T22:45:39.818Z,53.47
2018-03-25T22:48:08.114Z,50.83
2018-03-25T22:50:35.678Z,52.23
2018-03-25T22:53:03.526Z,53.80
2018-03-25T22:55:31.776Z,53.63
2018-03-25T22:57:59.267Z,53.23
2018-03-25T23:00:27.164Z,51.73
2018-03-25T23:02:54.687Z,53.57
2018-03-25T23:05:22.962Z,54.80
2018-03-25T23:07:51.256Z,57.03
2018-03-25T23:10:18.747Z,50.70
2018-03-25T23:12:46.230Z,53.20
2018-03-25T23:15:15.250Z,53.30
2018-03-25T23:17:43.495Z,53.03
2018-03-25T23:20:10.979Z,51.00
2018-03-25T23:22:38.564Z,51.33
2018-03-25T23:25:06.058Z,55.43
2018-03-25T23:27:33.592Z,53.47
2018-03-25T23:30:01.107Z,50.33
2018-03-25T23:32:28.601Z,53.30
2018-03-25T23:34:56.096Z,51.90
2018-03-25T23:37:23.708Z,51.57
2018-03-25T23:39:51.972Z,53.93
2018-03-25T23:42:19.543Z,55.40
2018-03-25T23:44:47.936Z,48.93
2018-03-25T23:47:15.432Z,55.30
2018-03-25T23:49:42.962Z,51.40
2018-03-25T23:52:10.497Z,56.07
2018-03-25T23:54:38.757Z,55.73
2018-03-25T23:57:06.260Z,52.03
2018-03-25T23:59:33.792Z,51.13
